Latest Weather Observations for Blackwater Airport

IDQ60801

Issued at 8:02 pm EST Tuesday 19 June 2018 (issued every 10 minutes, with the page automatically refreshed every 10 minutes)

About weather observations | Map of weather stations | Latest weather observations for QLD | Other Formats
Station Details ID: 035134 Name: BLACKWATER AIRPORT Lat: -23.60 Lon: 148.81 Height: 192.95 m
Data from the previous 72 hours. | See also: Recent months at Blackwater Airport
Date/Time
EST
Temp
°C
App
Temp
°C
Dew
Point
°C
Rel
Hum
%
Delta-T
°C
Wind Press
QNH
hPa
Press
MSL
hPa
Rain since
9am
mm
Dir  Spd
km/h
Gust
km/h
Spd
kts
Gust
kts
19/08:00pm 9.6 4.4 -3.0 41 4.7 S 15 17 8 9 1022.6 1022.3 0.0
19/07:30pm 11.5 6.3 -3.0 36 5.6 S 15 17 8 9 1022.5 1022.2 0.0
19/07:00pm 11.7 7.2 -3.2 35 5.7 S 11 13 6 7 1022.3 1022.0 0.0
19/06:30pm 12.7 7.4 -3.5 32 6.3 S 15 17 8 9 1021.9 1021.6 0.0
19/06:00pm 13.8 8.5 -3.9 29 6.8 S 15 17 8 9 1021.5 1021.2 0.0
19/05:30pm 15.4 10.8 -4.5 25 7.7 S 11 15 6 8 1021.1 1020.7 0.0
19/05:00pm 18.3 13.3 -4.4 21 9.1 S 13 20 7 11 1020.8 1020.4 0.0
19/04:30pm 19.3 13.1 -4.9 19 9.7 S 19 24 10 13 1020.8 1020.4 0.0
19/04:00pm 19.7 13.5 -3.2 21 9.5 S 20 30 11 16 1020.7 1020.3 0.0
19/03:30pm 19.9 12.9 -3.7 20 9.8 SSE 24 35 13 19 1020.5 1020.1 0.0
19/03:00pm 19.9 13.8 -2.4 22 9.4 S 20 28 11 15 1020.6 1020.2 0.0
19/02:30pm 19.7 13.5 -3.2 21 9.6 S 20 37 11 20 1020.6 1020.2 0.0
19/02:00pm 19.5 13.0 -2.2 23 9.2 SSE 22 39 12 21 1020.9 1020.5 0.0
19/01:30pm 19.0 13.0 -1.4 25 8.8 S 20 30 11 16 1021.1 1020.7 0.0
19/01:00pm 19.1 13.2 -0.8 26 8.6 S 20 30 11 16 1021.5 1021.2 0.0
19/12:30pm 18.4 12.4 -1.4 26 8.5 S 20 32 11 17 1022.0 1021.7 0.0
19/12:00pm 17.6 11.8 -0.2 30 7.7 SSE 20 35 11 19 1022.7 1022.4 0.0
19/11:30am 16.8 10.3 0.0 32 7.3 S 24 33 13 18 1023.4 1023.1 0.0
19/11:00am 16.1 10.0 0.3 34 6.8 S 22 33 12 18 1023.7 1023.4 0.0
19/10:30am 14.8 8.4 1.0 39 6.0 S 24 33 13 18 1024.1 1023.8 0.0
19/10:00am 15.0 8.8 2.2 42 5.7 S 24 33 13 18 1024.1 1023.8 0.0
19/09:30am 13.6 7.0 1.9 45 5.1 S 26 35 14 19 1024.5 1024.2 0.0
19/09:00am 12.8 6.5 1.8 47 4.8 S 24 32 13 17 1024.6 1024.3 0.0
19/08:30am 11.5 6.1 1.5 50 4.3 S 19 28 10 15 1024.5 1024.2 0.0
19/08:00am 9.4 5.1 1.1 56 3.4 SSW 13 17 7 9 1024.4 1024.1 0.0
19/07:30am 7.3 2.5 0.3 61 2.8 SSW 15 17 8 9 1024.3 1024.0 0.0
19/07:00am 5.9 1.0 -0.2 65 2.3 S 15 17 8 9 1024.1 1023.8 0.0
19/06:30am 4.8 -0.1 -0.6 68 2.0 SSW 15 17 8 9 1023.8 1023.5 0.0
19/06:00am 4.3 0.0 -1.9 64 2.2 SSW 11 13 6 7 1023.6 1023.3 0.0
19/05:30am 4.5 -0.7 -2.4 61 2.5 SSW 15 15 8 8 1023.3 1023.0 0.0
19/05:00am 5.2 -0.3 -1.9 60 2.6 S 17 19 9 10 1023.1 1022.8 0.0
19/04:30am 4.7 -0.7 -1.5 64 2.3 S 17 19 9 10 1022.8 1022.5 0.0
19/04:00am 4.6 -1.0 -2.7 59 2.6 S 17 19 9 10 1022.9 1022.6 0.0
19/03:30am 4.7 -0.9 -2.6 59 2.6 S 17 20 9 11 1022.9 1022.6 0.0
19/03:00am 4.4 -0.5 -3.4 57 2.7 SSW 13 15 7 8 1023.1 1022.8 0.0
19/02:30am 5.4 0.6 -2.9 55 3.0 SSW 13 15 7 8 1023.1 1022.8 0.0
19/02:00am 5.3 0.0 -3.2 54 3.0 SSW 15 17 8 9 1023.1 1022.8 0.0
19/01:30am 5.9 0.6 -3.4 51 3.3 SSW 15 17 8 9 1023.2 1022.9 0.0
19/01:00am 7.9 3.0 -3.3 45 4.1 S 13 17 7 9 1023.4 1023.1 0.0
19/12:30am 7.8 2.8 -4.0 43 4.2 S 13 17 7 9 1023.4 1023.1 0.0
19/12:00am 9.8 4.1 -3.5 39 4.9 S 17 19 9 10 1023.3 1023.0 0.0
 
Date/Time
EST
Temp
°C
App
Temp
°C
Dew
Point
°C
Rel
Hum
%
Delta-T
°C
Wind Press
QNH
hPa
Press
MSL
hPa
Rain since
9am
mm
Dir  Spd
km/h
Gust
km/h
Spd
kts
Gust
kts
18/11:30pm 11.0 5.6 -4.2 34 5.7 S 15 20 8 11 1023.3 1023.0 0.0
18/11:00pm 11.9 5.9 -3.4 34 5.8 S 19 24 10 13 1023.3 1023.0 0.0
18/10:30pm 11.4 5.3 -3.9 34 5.8 SSE 19 24 10 13 1023.3 1023.0 0.0
18/10:00pm 11.1 4.8 -3.8 35 5.6 SSE 20 28 11 15 1023.1 1022.8 0.0
18/09:30pm 9.4 4.4 -4.2 38 5.0 S 13 17 7 9 1023.1 1022.8 0.0
18/09:00pm 9.1 4.1 -4.1 39 4.8 S 13 17 7 9 1022.9 1022.6 0.0
18/08:30pm 9.5 4.5 -4.4 37 5.1 S 13 15 7 8 1022.9 1022.6 0.0
18/08:00pm 10.0 5.4 -4.0 37 5.2 SSE 11 15 6 8 1022.6 1022.3 0.0
18/07:30pm 10.8 6.5 -5.2 32 5.8 SSE 9 11 5 6 1022.3 1022.0 0.0
18/07:00pm 11.5 7.2 -5.0 31 6.0 SSE 9 11 5 6 1022.0 1021.7 0.0
18/06:30pm 12.6 8.3 -4.5 30 6.4 SSE 9 11 5 6 1021.9 1021.6 0.0
18/06:00pm 13.3 8.2 -5.3 27 6.9 SSE 13 15 7 8 1021.4 1021.1 0.0
18/05:30pm 15.2 10.0 -5.8 23 7.9 S 13 17 7 9 1021.0 1020.6 0.0
18/05:00pm 17.0 11.0 -6.8 19 8.9 S 17 24 9 13 1020.8 1020.4 0.0
18/04:30pm 18.0 11.5 -8.2 16 9.7 S 19 24 10 13 1020.4 1020.0 0.0
18/04:00pm 18.7 11.2 -8.4 15 10.0 S 24 33 13 18 1020.3 1019.9 0.0
18/03:30pm 19.1 11.3 -8.1 15 10.2 SSW 26 33 14 18 1020.3 1019.9 0.0
18/03:00pm 18.9 11.6 -6.7 17 9.8 SSW 24 32 13 17 1020.1 1019.7 0.0
18/02:30pm 18.6 11.8 -5.4 19 9.5 SSW 22 30 12 16 1020.5 1020.1 0.0
18/02:00pm 18.8 11.6 -5.3 19 9.5 SW 24 35 13 19 1020.8 1020.4 0.0
18/01:30pm 17.8 11.5 -4.2 22 8.8 SSW 20 33 11 18 1021.4 1021.1 0.0
18/01:00pm 17.8 11.5 -4.2 22 8.8 SSW 20 32 11 17 1021.7 1021.4 0.0
18/12:30pm 17.4 10.2 -5.1 21 8.8 SSW 24 33 13 18 1022.3 1022.0 0.0
18/12:00pm 16.9 10.6 -4.3 23 8.4 S 20 30 11 16 1022.9 1022.6 0.0
18/11:30am 15.5 8.1 -3.4 27 7.5 S 26 37 14 20 1023.5 1023.2 0.0
18/11:00am 15.1 7.8 -3.2 28 7.3 S 26 35 14 19 1024.0 1023.7 0.0
18/10:30am 15.1 7.1 -2.3 30 7.1 S 30 41 16 22 1024.0 1023.7 0.0
18/10:00am 14.3 7.0 -2.6 31 6.7 S 26 39 14 21 1024.1 1023.8 0.0
18/09:30am 13.4 4.9 -2.9 32 6.4 SSE 32 43 17 23 1024.1 1023.8 0.0
18/09:00am 12.8 4.3 -3.0 33 6.1 SSE 32 46 17 25 1023.9 1023.6 0.0
18/08:30am 12.3 4.2 -3.1 34 6.0 SSE 30 43 16 23 1023.8 1023.5 0.0
18/08:00am 11.1 3.7 -3.4 36 5.5 S 26 35 14 19 1023.7 1023.4 0.0
18/07:30am 10.2 3.2 -3.8 37 5.2 S 24 35 13 19 1023.6 1023.3 0.0
18/07:00am 9.4 3.1 -3.8 39 4.8 S 20 28 11 15 1023.5 1023.2 0.0
18/06:30am 9.3 2.6 -3.9 39 4.9 S 22 30 12 16 1023.2 1022.9 0.0
18/06:00am 9.8 2.3 -4.2 37 5.1 S 26 35 14 19 1022.9 1022.6 0.0
18/05:30am 10.0 2.9 -4.4 36 5.3 S 24 33 13 18 1022.6 1022.3 0.0
18/05:00am 8.7 2.5 -3.5 42 4.5 S 20 26 11 14 1022.6 1022.3 0.0
18/04:30am 7.8 2.2 -3.1 46 4.0 S 17 20 9 11 1022.3 1022.0 0.0
18/04:00am 9.4 3.8 -3.2 41 4.7 S 17 20 9 11 1022.4 1022.1 0.0
18/03:30am 10.5 4.5 -3.2 38 5.2 S 19 28 10 15 1022.4 1022.1 0.0
18/03:00am 10.0 4.0 -3.3 39 5.0 S 19 26 10 14 1022.3 1022.0 0.0
18/02:30am 10.2 4.6 -3.1 39 5.0 S 17 22 9 12 1022.2 1021.9 0.0
18/02:00am 9.2 4.0 -3.0 42 4.6 S 15 20 8 11 1022.3 1022.0 0.0
18/01:30am 9.3 4.9 -2.3 44 4.4 S 11 17 6 9 1022.6 1022.3 0.0
18/01:00am 10.0 4.7 -3.3 39 5.0 S 15 22 8 12 1022.7 1022.4 0.0
18/12:30am 8.0 2.1 -2.3 48 3.9 S 19 24 10 13 1022.6 1022.3 0.0
18/12:00am 8.1 2.1 -1.7 50 3.7 SSW 20 24 11 13 1022.5 1022.2 0.0
 
Date/Time
EST
Temp
°C
App
Temp
°C
Dew
Point
°C
Rel
Hum
%
Delta-T
°C
Wind Press
QNH
hPa
Press
MSL
hPa
Rain since
9am
mm
Dir  Spd
km/h
Gust
km/h
Spd
kts
Gust
kts
17/11:30pm 7.5 2.0 -2.0 51 3.6 SSW 17 17 9 9 1022.5 1022.2 0.0
17/11:00pm 7.0 3.1 -1.4 55 3.2 S 9 13 5 7 1022.4 1022.1 0.0
17/10:30pm 7.5 5.3 -1.7 52 3.5 CALM 0 0 0 0 1022.4 1022.1 0.0
17/10:00pm 9.1 5.2 -1.6 47 4.1 S 9 13 5 7 1022.1 1021.8 0.0
17/09:30pm 10.0 5.8 -1.1 46 4.4 S 11 13 6 7 1021.9 1021.6 0.0
17/09:00pm 10.5 5.2 -0.6 46 4.5 S 17 19 9 10 1021.9 1021.6 0.0
17/08:30pm 9.2 4.6 -0.9 49 4.0 S 13 15 7 8 1021.8 1021.5 0.0
17/08:00pm 10.5 6.0 -0.6 46 4.5 WSW 13 13 7 7 1021.5 1021.2 0.0
17/07:30pm 12.8 8.9 -1.5 37 5.8 SSE 9 11 5 6 1021.3 1021.0 0.0
17/07:00pm 16.3 13.0 -1.3 30 7.4 W 6 9 3 5 1021.1 1020.7 0.0
17/06:30pm 14.3 10.9 -0.5 36 6.2 SSE 7 13 4 7 1020.6 1020.2 0.0
17/06:00pm 14.9 11.4 -1.6 32 6.8 SSW 7 9 4 5 1020.2 1019.8 0.0
17/05:30pm 17.2 13.7 -1.4 28 7.9 SSW 7 9 4 5 1020.0 1019.6 0.0
17/05:00pm 18.5 14.2 -1.3 26 8.5 SSW 11 13 6 7 1019.3 1019.0 0.0
17/04:30pm 20.1 14.7 -1.7 23 9.4 SW 17 22 9 12 1019.2 1018.9 0.0
17/04:00pm 20.7 14.9 -1.8 22 9.7 SW 19 24 10 13 1019.1 1018.8 0.0
17/03:30pm 20.8 15.3 -2.3 21 9.9 SW 17 24 9 13 1019.2 1018.9 0.0
17/03:00pm 20.9 15.0 -2.2 21 9.9 SW 19 22 10 12 1019.1 1018.8 0.0
17/02:30pm 20.9 16.7 -1.0 23 9.7 SSW 11 20 6 11 1019.3 1019.0 0.0
17/02:00pm 20.6 15.6 -1.2 23 9.5 S 15 28 8 15 1019.7 1019.3 0.0
17/01:30pm 19.9 15.8 -0.1 26 8.9 SW 11 22 6 12 1020.1 1019.7 0.0
17/01:00pm 19.0 14.9 0.1 28 8.3 SSW 11 22 6 12 1020.6 1020.2 0.0
17/12:30pm 19.4 13.9 0.9 29 8.4 SSW 19 28 10 15 1021.4 1021.1 0.0
17/12:00pm 18.9 13.5 1.0 30 8.0 S 19 28 10 15 1022.0 1021.7 0.0
17/11:30am 18.9 13.0 1.4 31 8.0 S 22 32 12 17 1022.4 1022.1 0.0
17/11:00am 17.8 11.4 0.9 32 7.5 S 24 33 13 18 1023.1 1022.8 0.0
17/10:30am 17.0 10.2 1.0 34 7.1 S 26 39 14 21 1023.3 1023.0 0.0
17/10:00am 16.7 10.3 1.2 35 6.9 S 24 33 13 18 1023.5 1023.2 0.0
17/09:30am 16.4 10.5 1.7 37 6.6 S 22 33 12 18 1023.6 1023.3 0.0
17/09:00am 15.9 9.6 1.6 38 6.3 S 24 35 13 19 1023.4 1023.1 0.0
17/08:30am 15.0 9.5 1.9 41 5.8 S 20 32 11 17 1023.3 1023.0 0.0
17/08:00am 14.4 8.1 1.7 42 5.6 S 24 33 13 18 1023.1 1022.8 0.0
17/07:30am 13.7 8.1 1.4 43 5.3 S 20 30 11 16 1023.0 1022.7 0.0
17/07:00am 13.2 7.7 0.9 43 5.2 S 19 26 10 14 1022.6 1022.3 0.0
17/06:30am 12.9 7.4 0.3 42 5.3 S 19 28 10 15 1022.2 1021.9 0.0
17/06:00am 10.2 5.3 -0.6 47 4.3 SW 15 17 8 9 1021.8 1021.5 0.0
17/05:30am 9.8 5.2 -1.0 47 4.3 SSW 13 15 7 8 1021.4 1021.1 0.0
17/05:00am 10.2 4.9 -0.3 48 4.2 SSW 17 19 9 10 1021.2 1020.9 0.0
17/04:30am 10.1 5.9 -0.7 47 4.3 SW 11 11 6 6 1021.1 1020.7 0.0
17/04:00am 10.9 6.7 -0.9 44 4.7 SSW 11 15 6 8 1021.0 1020.6 0.0
17/03:30am 10.9 7.6 -1.5 42 4.9 S 6 11 3 6 1020.9 1020.5 0.0
17/03:00am 11.4 5.5 -1.0 42 5.0 SSW 20 20 11 11 1020.7 1020.3 0.0
17/02:30am 12.5 7.9 -1.4 38 5.6 SSW 13 17 7 9 1020.7 1020.3 0.0
17/02:00am 12.5 6.7 -1.8 37 5.7 SSW 19 20 10 11 1020.7 1020.3 0.0
17/01:30am 13.9 8.1 -1.3 35 6.2 SSW 19 22 10 12 1020.9 1020.5 0.0
17/01:00am 13.6 7.6 -1.2 36 6.0 SSW 20 26 11 14 1021.0 1020.6 0.0
17/12:30am 13.4 9.6 -0.6 38 5.8 S 9 17 5 9 1021.0 1020.6 0.0
17/12:00am 13.0 8.9 0.1 41 5.4 S 11 13 6 7 1021.0 1020.6 0.0
 
Date/Time
EST
Temp
°C
App
Temp
°C
Dew
Point
°C
Rel
Hum
%
Delta-T
°C
Wind Press
QNH
hPa
Press
MSL
hPa
Rain since
9am
mm
Dir  Spd
km/h
Gust
km/h
Spd
kts
Gust
kts
16/11:30pm 13.7 9.7 0.4 40 5.7 SSW 11 15 6 8 1021.2 1020.9 0.0
16/11:00pm 12.9 9.2 2.2 48 4.7 S 11 13 6 7 1021.3 1021.0 0.0
16/10:30pm 12.4 9.2 2.8 52 4.3 S 9 13 5 7 1021.3 1021.0 0.0
16/10:00pm 12.4 8.1 3.1 53 4.1 S 15 17 8 9 1021.3 1021.0 0.0
16/09:30pm 12.7 7.8 4.2 56 3.9 S 19 20 10 11 1021.3 1021.0 0.0
16/09:00pm 14.0 9.9 4.3 52 4.5 SSW 15 17 8 9 1021.4 1021.1 0.0
16/08:30pm 13.7 8.8 4.3 53 4.4 SSW 19 20 10 11 1021.4 1021.1 0.0

Other Formats:

Comma delimited format used in spreadsheet applications
http://www.bom.gov.au/fwo/IDQ60801/IDQ60801.94398.axf

JavaScript Object Notation format (JSON) in row-major order
http://www.bom.gov.au/fwo/IDQ60801/IDQ60801.94398.json